The Hangar Logo

METARs in Plain English
Latest METAR information for EGVN - BRIZE NORTON

EGVN 310350Z 23003KT 9999 FEW020 SCT250 11/10 Q1017 BLU TEMPO SCT020 WHT

In plain english is....

This is a METAR report for EGVN - BRIZE NORTON .
The report was made 24 minutes ago, at 03:50 UTC.
The wind was blowing at a speed of 3 knots (3.5 miles per hour, 1.5 metres per second) from the Southwest (230°).
The visibility was greater than 6.2 miles (greater than 10 kilometres).
There were a few clouds at a height of 2000 feet (610 metres) and scattered clouds at a height of 25000 feet (7620 metres).
The temperature was 11°C (52°F), a dew point of 10°C (50°F) and a relative humidity of 93.5%.
The altimeter setting (airfield QNH) was 1,017 hPa (30.03 inHg).
Other remarks BLU TEMPO SCT020 WHT.

UK Mainland

Ireland

Channel Islands

France

Other



Enter
Tel: 07092 887559 - Fax: 07092 183262

Terms of Use | Privacy Statement
Content copyright © 1999-2012 TheHangar.co.uk. All rights reserved.
Please send your questions, comments, or bug reports to the Webmaster.